Time;durP1;ratioP1;P1;durP2;ratioP2;P2;SDS_P1;SDS_P2;PMS_P1;PMS_P2;Temp;Humidity;BMP_temperature;BMP_pressure;BME280_temperature;BME280_humidity;BME280_pressure;Samples;Min_cycle;Max_cycle;Signal;HPM_P1;HPM_P2
2022/08/03 00:01:18;;;;;;;7.85;1.92;;;19.40;99.90;;;;;;5054329;28;20038;-78
2022/08/03 00:03:44;;;;;;;4.97;1.48;;;19.30;99.90;;;;;;5072449;28;20382;-78
2022/08/03 00:06:09;;;;;;;6.28;2.05;;;19.20;99.90;;;;;;5054629;28;20102;-78
2022/08/03 00:08:35;;;;;;;5.22;2.22;;;19.20;99.90;;;;;;5054397;28;20038;-78
2022/08/03 00:11:00;;;;;;;6.63;2.22;;;19.20;99.90;;;;;;5061261;28;20044;-78
2022/08/03 00:13:26;;;;;;;6.53;2.50;;;19.20;99.90;;;;;;5045585;28;20052;-78
2022/08/03 00:15:52;;;;;;;7.80;2.65;;;19.10;99.90;;;;;;5074544;28;20118;-78
2022/08/03 00:18:17;;;;;;;7.25;3.08;;;19.10;99.90;;;;;;5037419;28;20044;-78
2022/08/03 00:20:43;;;;;;;9.88;2.22;;;19.00;99.90;;;;;;5053949;28;20080;-78
2022/08/03 00:23:09;;;;;;;8.18;2.38;;;19.10;99.90;;;;;;5037379;28;20170;-78
2022/08/03 00:25:35;;;;;;;11.10;2.55;;;19.00;99.90;;;;;;5053982;28;20044;-78
2022/08/03 00:28:02;;;;;;;5.55;1.95;;;19.00;99.90;;;;;;5053869;28;20093;-78
2022/08/03 00:30:28;;;;;;;7.30;2.47;;;19.00;99.90;;;;;;5053767;28;20072;-78
2022/08/03 00:32:54;;;;;;;6.68;2.33;;;19.00;99.90;;;;;;5053854;28;20044;-78
2022/08/03 00:35:19;;;;;;;7.47;2.58;;;18.90;99.90;;;;;;5053680;28;20045;-78
2022/08/03 00:37:45;;;;;;;6.10;2.05;;;18.90;99.90;;;;;;5053850;28;20041;-78
2022/08/03 00:40:12;;;;;;;7.97;2.15;;;18.90;99.90;;;;;;5071237;28;20037;-78
2022/08/03 00:42:50;;;;;;;11.00;2.08;;;18.80;99.90;;;;;;5036929;28;20430;-78
2022/08/03 00:45:17;;;;;;;7.85;2.40;;;18.90;99.90;;;;;;5053549;28;20496;-78
2022/08/03 00:47:43;;;;;;;5.05;1.75;;;18.80;99.90;;;;;;5053430;28;20045;-78
2022/08/03 00:50:09;;;;;;;7.15;1.95;;;18.80;99.90;;;;;;5056226;28;20047;-78
2022/08/03 00:52:35;;;;;;;8.68;2.05;;;18.80;99.90;;;;;;5057837;28;20082;-77
2022/08/03 00:55:02;;;;;;;8.25;1.77;;;18.80;99.90;;;;;;5040766;28;20047;-77
2022/08/03 00:57:29;;;;;;;7.30;2.05;;;18.80;99.90;;;;;;5057362;28;20045;-77
2022/08/03 00:59:55;;;;;;;6.93;1.73;;;18.80;99.90;;;;;;5056946;28;20054;-77
2022/08/03 01:02:20;;;;;;;7.10;2.03;;;18.80;99.90;;;;;;5057585;28;20123;-77
2022/08/03 01:04:46;;;;;;;6.05;1.95;;;18.80;99.90;;;;;;5057292;28;20044;-77
2022/08/03 01:07:30;;;;;;;6.75;2.05;;;18.80;99.90;;;;;;5057416;28;20067;-78
2022/08/03 01:09:59;;;;;;;8.35;2.92;;;18.80;99.90;;;;;;5057318;28;20048;-77
2022/08/03 01:12:33;;;;;;;3.72;1.70;;;18.70;99.90;;;;;;5057261;28;20062;-77
2022/08/03 01:15:11;;;;;;;5.28;1.92;;;18.70;99.90;;;;;;5057771;28;20553;-77
2022/08/03 01:17:46;;;;;;;6.05;1.85;;;18.80;99.90;;;;;;5056353;28;20184;-78
2022/08/03 01:20:13;;;;;;;8.73;1.92;;;18.70;99.90;;;;;;5056065;28;20036;-77
2022/08/03 01:23:17;;;;;;;5.82;2.38;;;18.70;99.90;;;;;;5056772;28;20048;-77
2022/08/03 01:25:57;;;;;;;13.63;2.53;;;18.70;99.90;;;;;;5057161;28;20048;-77
2022/08/03 01:28:57;;;;;;;7.95;2.03;;;18.70;99.90;;;;;;5057167;28;20411;-78
2022/08/03 01:31:31;;;;;;;7.18;2.25;;;18.70;99.90;;;;;;5040020;28;20052;-77
2022/08/03 01:34:01;;;;;;;6.13;2.00;;;18.60;99.90;;;;;;5040109;28;20040;-78
2022/08/03 01:36:35;;;;;;;6.05;2.00;;;18.60;99.90;;;;;;5039702;28;20040;-78
2022/08/03 01:39:03;;;;;;;7.95;2.00;;;18.60;99.90;;;;;;5056320;28;20048;-77
2022/08/03 01:41:53;;;;;;;11.80;2.47;;;18.60;99.90;;;;;;5056113;28;20037;-78
2022/08/03 01:44:20;;;;;;;8.77;2.55;;;18.60;99.90;;;;;;5056113;28;20049;-77
2022/08/03 01:46:50;;;;;;;6.93;2.38;;;18.50;99.90;;;;;;5057197;28;20041;-78
2022/08/03 01:49:16;;;;;;;5.97;1.98;;;18.40;99.90;;;;;;5058181;28;20040;-77
2022/08/03 01:51:46;;;;;;;5.38;2.40;;;18.40;99.90;;;;;;5054490;28;20054;-77
2022/08/03 01:54:13;;;;;;;8.55;2.13;;;18.40;99.90;;;;;;5037550;28;20040;-78
2022/08/03 01:56:41;;;;;;;7.03;2.50;;;18.40;99.90;;;;;;5072277;28;20045;-77
2022/08/03 01:59:10;;;;;;;6.82;2.42;;;18.40;99.90;;;;;;5054532;28;20049;-77
2022/08/03 02:01:37;;;;;;;6.30;2.10;;;18.30;99.90;;;;;;5055026;28;20041;-78
2022/08/03 02:04:05;;;;;;;8.80;2.00;;;18.30;99.90;;;;;;5076400;28;20051;-77
2022/08/03 02:06:33;;;;;;;4.75;2.45;;;18.30;99.90;;;;;;5058430;28;20037;-77
2022/08/03 02:09:00;;;;;;;6.85;2.28;;;18.30;99.90;;;;;;5058533;28;20040;-77
2022/08/03 02:11:30;;;;;;;9.70;2.83;;;18.30;99.90;;;;;;5057937;28;20239;-78
2022/08/03 02:13:58;;;;;;;4.88;2.20;;;18.30;99.90;;;;;;5057961;28;20040;-77
2022/08/03 02:16:27;;;;;;;6.55;2.28;;;18.30;99.90;;;;;;5057777;28;20063;-77
2022/08/03 02:18:53;;;;;;;7.18;2.28;;;18.30;99.90;;;;;;5058001;28;20055;-76
2022/08/03 02:21:21;;;;;;;8.93;2.53;;;18.30;99.90;;;;;;5057640;28;20174;-78
2022/08/03 02:23:47;;;;;;;9.48;2.13;;;18.30;99.90;;;;;;5058551;28;20111;-77
2022/08/03 02:26:18;;;;;;;9.98;2.10;;;18.30;99.90;;;;;;5076230;28;20491;-77
2022/08/03 02:28:48;;;;;;;5.38;1.95;;;18.20;99.90;;;;;;5076302;28;20075;-77
2022/08/03 02:31:18;;;;;;;9.90;2.55;;;18.20;99.90;;;;;;5058120;28;20039;-77
2022/08/03 02:33:52;;;;;;;8.45;1.98;;;18.10;99.90;;;;;;5057903;28;20071;-77
2022/08/03 02:36:25;;;;;;;8.93;2.63;;;18.10;99.90;;;;;;5057762;28;20110;-77
2022/08/03 02:38:54;;;;;;;9.63;2.60;;;18.10;99.90;;;;;;5058073;28;20072;-77
2022/08/03 02:41:26;;;;;;;12.48;2.95;;;18.10;99.90;;;;;;5057314;28;20090;-77
2022/08/03 02:43:54;;;;;;;8.80;2.67;;;18.00;99.90;;;;;;5057935;28;20124;-77
2022/08/03 02:46:24;;;;;;;7.32;2.50;;;18.00;99.90;;;;;;5057479;28;20101;-77
2022/08/03 02:48:53;;;;;;;11.45;2.70;;;18.00;99.90;;;;;;5057654;28;20127;-77
2022/08/03 02:51:20;;;;;;;10.27;3.13;;;17.90;99.90;;;;;;5058596;28;20048;-78
2022/08/03 02:53:47;;;;;;;5.63;2.10;;;18.00;99.90;;;;;;5060159;28;20105;-77
2022/08/03 02:56:13;;;;;;;7.57;2.25;;;18.00;99.90;;;;;;5059912;28;20040;-77
2022/08/03 02:58:42;;;;;;;10.10;3.08;;;17.90;99.90;;;;;;5043190;28;20040;-77
2022/08/03 03:01:09;;;;;;;4.05;1.80;;;18.00;99.90;;;;;;5059222;28;20052;-77
2022/08/03 03:03:35;;;;;;;5.15;2.28;;;17.90;99.90;;;;;;5076626;28;20096;-78
2022/08/03 03:06:02;;;;;;;4.13;2.08;;;17.90;99.90;;;;;;5042709;28;20048;-78
2022/08/03 03:08:28;;;;;;;12.50;2.65;;;18.00;99.90;;;;;;5042322;28;20096;-77
2022/08/03 03:10:56;;;;;;;7.35;2.72;;;17.90;99.90;;;;;;5058879;28;20055;-77
2022/08/03 03:13:23;;;;;;;7.55;2.47;;;18.00;99.90;;;;;;5041839;28;20507;-78
2022/08/03 03:15:49;;;;;;;10.85;2.83;;;18.00;99.90;;;;;;5059313;28;20044;-77
2022/08/03 03:18:16;;;;;;;11.05;2.55;;;18.00;99.90;;;;;;5058671;28;20070;-78
2022/08/03 03:20:44;;;;;;;6.32;2.53;;;17.90;99.90;;;;;;5058530;28;20037;-78
2022/08/03 03:23:10;;;;;;;8.60;2.65;;;17.90;99.90;;;;;;5058773;28;20063;-78
2022/08/03 03:25:37;;;;;;;10.18;2.38;;;18.00;99.90;;;;;;5059409;28;20391;-78
2022/08/03 03:28:05;;;;;;;4.22;1.88;;;17.90;99.90;;;;;;5059319;28;20460;-77
2022/08/03 03:30:31;;;;;;;8.65;2.67;;;17.90;99.90;;;;;;5058844;28;20093;-78
2022/08/03 03:32:58;;;;;;;7.90;2.10;;;17.90;99.90;;;;;;5058271;28;20041;-77
2022/08/03 03:35:24;;;;;;;14.75;2.85;;;17.90;99.90;;;;;;5042050;28;20043;-78
2022/08/03 03:37:51;;;;;;;14.95;2.50;;;17.90;99.90;;;;;;5058732;28;20075;-78
2022/08/03 03:40:16;;;;;;;7.75;2.00;;;17.90;99.90;;;;;;5058432;28;20041;-77
2022/08/03 03:42:42;;;;;;;8.52;2.17;;;17.90;99.90;;;;;;5062252;28;20036;-77
2022/08/03 03:45:09;;;;;;;7.13;2.38;;;17.90;99.90;;;;;;5060694;28;20033;-76
2022/08/03 03:47:34;;;;;;;6.85;2.45;;;17.80;99.90;;;;;;5055805;28;20048;-78
2022/08/03 03:50:05;;;;;;;8.90;2.55;;;17.80;99.90;;;;;;5041349;28;20132;-77
2022/08/03 03:52:31;;;;;;;7.78;2.05;;;17.80;99.90;;;;;;5058964;28;20247;-77
2022/08/03 03:54:57;;;;;;;8.93;2.45;;;17.80;99.90;;;;;;5059367;28;20036;-77
2022/08/03 03:57:23;;;;;;;8.20;2.50;;;17.80;99.90;;;;;;5058870;28;20373;-78
2022/08/03 03:59:48;;;;;;;11.38;2.38;;;17.80;99.90;;;;;;5059168;28;20041;-78
2022/08/03 04:02:14;;;;;;;9.68;2.60;;;17.80;99.90;;;;;;5042515;28;20518;-77
2022/08/03 04:12:59;;;;;;;8.18;1.98;;;17.70;99.90;;;;;;5055760;28;20055;-78
2022/08/03 04:15:30;;;;;;;7.78;2.83;;;17.70;99.90;;;;;;5055317;28;20044;-78
2022/08/03 04:17:57;;;;;;;9.23;2.60;;;17.70;99.90;;;;;;5040136;28;20040;-78
2022/08/03 04:20:29;;;;;;;8.90;2.38;;;17.80;99.90;;;;;;5054859;28;20048;-78
2022/08/03 04:22:58;;;;;;;5.72;2.45;;;17.70;99.90;;;;;;5055558;28;20072;-78
2022/08/03 04:25:27;;;;;;;10.63;2.50;;;17.80;99.90;;;;;;5053496;28;20056;-78
2022/08/03 04:27:57;;;;;;;8.40;2.42;;;17.80;99.90;;;;;;5073112;28;20044;-78
2022/08/03 04:30:28;;;;;;;14.77;2.65;;;17.80;99.90;;;;;;5037696;28;20071;-78
2022/08/03 04:32:58;;;;;;;8.73;2.13;;;17.90;99.90;;;;;;5058123;28;20133;-79
2022/08/03 04:35:24;;;;;;;9.98;2.90;;;17.90;99.90;;;;;;5055115;28;20094;-78
2022/08/03 04:37:53;;;;;;;8.27;2.70;;;17.90;99.90;;;;;;5055012;28;20071;-78
2022/08/03 04:40:22;;;;;;;11.25;3.08;;;18.00;99.90;;;;;;5053820;28;20044;-77
2022/08/03 04:42:49;;;;;;;7.65;2.60;;;18.00;99.90;;;;;;5054759;28;20037;-78
2022/08/03 04:45:16;;;;;;;6.57;2.33;;;18.00;99.90;;;;;;5054558;28;20651;-78
2022/08/03 04:47:42;;;;;;;10.25;2.55;;;18.10;99.90;;;;;;5054817;28;20551;-78
2022/08/03 04:50:08;;;;;;;9.52;2.90;;;18.00;99.90;;;;;;5053863;28;20123;-78
2022/08/03 04:52:34;;;;;;;6.88;2.90;;;18.10;99.90;;;;;;5054002;28;20530;-78
2022/08/03 04:55:00;;;;;;;7.72;2.67;;;18.10;99.90;;;;;;5054799;28;20049;-78
2022/08/03 04:57:25;;;;;;;10.52;2.88;;;18.20;99.90;;;;;;5055141;28;20051;-78
2022/08/03 04:59:53;;;;;;;7.97;2.90;;;18.20;99.90;;;;;;5054400;28;20028;-78
2022/08/03 05:02:20;;;;;;;13.18;3.55;;;18.30;99.90;;;;;;5054882;28;20068;-78
2022/08/03 05:04:46;;;;;;;7.93;2.92;;;18.40;99.90;;;;;;5054192;28;20531;-78
2022/08/03 05:07:16;;;;;;;13.45;2.90;;;18.40;99.90;;;;;;5054420;28;20163;-78
2022/08/03 05:09:42;;;;;;;9.13;2.72;;;18.60;99.90;;;;;;5054299;28;20048;-78
2022/08/03 05:12:08;;;;;;;9.32;3.00;;;18.90;99.90;;;;;;5054782;28;20050;-78
2022/08/03 05:14:38;;;;;;;9.98;3.05;;;19.30;99.90;;;;;;5054627;28;20036;-78
2022/08/03 05:17:04;;;;;;;9.30;2.78;;;19.80;99.90;;;;;;5054792;28;20495;-78
2022/08/03 05:19:30;;;;;;;12.63;2.55;;;20.40;99.90;;;;;;5054279;28;20052;-79
2022/08/03 05:21:56;;;;;;;9.57;2.72;;;20.90;99.90;;;;;;5038484;28;20036;-78
2022/08/03 05:24:21;;;;;;;8.80;2.70;;;21.30;99.90;;;;;;5054862;28;20093;-79
2022/08/03 05:26:47;;;;;;;9.07;2.42;;;21.70;99.90;;;;;;5055957;28;20041;-78
2022/08/03 05:29:12;;;;;;;8.68;2.58;;;22.10;99.90;;;;;;5055004;28;20040;-78
2022/08/03 05:31:39;;;;;;;11.35;2.78;;;22.30;99.90;;;;;;5038023;28;20090;-78
2022/08/03 05:34:04;;;;;;;9.90;2.65;;;22.60;99.90;;;;;;5054667;28;20055;-79
2022/08/03 05:36:30;;;;;;;8.30;2.13;;;22.80;99.90;;;;;;5071882;28;20395;-79
2022/08/03 05:38:56;;;;;;;7.80;2.50;;;23.00;99.90;;;;;;5038542;28;20502;-79
2022/08/03 05:41:21;;;;;;;12.77;3.08;;;23.30;99.90;;;;;;5072914;28;20040;-79
2022/08/03 05:43:47;;;;;;;7.35;2.60;;;23.50;99.90;;;;;;5054982;28;20036;-79
2022/08/03 05:46:13;;;;;;;7.82;2.47;;;23.60;99.90;;;;;;5055363;28;20094;-79
2022/08/03 05:48:40;;;;;;;7.65;2.78;;;23.70;99.90;;;;;;5055263;28;20104;-78
2022/08/03 05:51:09;;;;;;;8.23;2.72;;;23.80;99.90;;;;;;5054260;28;20055;-79
2022/08/03 05:53:36;;;;;;;10.68;2.50;;;23.80;99.90;;;;;;5038203;28;20487;-79
2022/08/03 05:56:02;;;;;;;8.65;2.70;;;23.70;99.90;;;;;;5055195;28;20037;-79
2022/08/03 05:58:27;;;;;;;7.60;2.83;;;23.60;99.90;;;;;;5054364;28;20114;-79
2022/08/03 06:00:53;;;;;;;8.77;3.00;;;23.50;99.90;;;;;;5072449;28;20115;-78
2022/08/03 06:03:19;;;;;;;8.70;3.42;;;23.60;99.90;;;;;;5037990;28;20103;-78
2022/08/03 06:05:45;;;;;;;10.23;2.67;;;23.50;99.90;;;;;;5054846;28;20048;-79
2022/08/03 06:08:10;;;;;;;10.55;3.10;;;23.60;99.90;;;;;;5054965;28;20044;-79
2022/08/03 06:10:36;;;;;;;9.32;3.33;;;23.70;99.90;;;;;;5054699;28;20048;-79
2022/08/03 06:13:02;;;;;;;8.75;3.25;;;23.80;99.90;;;;;;5038116;28;20047;-78
2022/08/03 06:15:29;;;;;;;7.40;2.78;;;24.10;99.90;;;;;;5038149;28;20047;-79
2022/08/03 06:17:56;;;;;;;10.18;3.03;;;24.20;99.90;;;;;;5054639;28;20048;-78
2022/08/03 06:20:22;;;;;;;8.40;3.70;;;24.40;99.90;;;;;;5054885;28;20032;-79
2022/08/03 06:22:48;;;;;;;15.52;3.35;;;24.50;99.90;;;;;;5054319;28;20545;-79
2022/08/03 06:25:15;;;;;;;10.18;2.75;;;24.40;99.90;;;;;;5055582;28;20036;-79
2022/08/03 06:27:41;;;;;;;10.45;2.90;;;24.40;99.90;;;;;;5055493;28;20059;-78
2022/08/03 06:30:09;;;;;;;7.88;2.70;;;24.40;99.90;;;;;;5072290;28;20037;-79
2022/08/03 06:32:41;;;;;;;8.25;2.60;;;24.50;99.90;;;;;;5054562;28;20504;-79
2022/08/03 06:35:08;;;;;;;6.93;2.33;;;24.70;99.90;;;;;;5055641;28;20387;-79
2022/08/03 06:37:48;;;;;;;9.15;2.75;;;24.70;99.90;;;;;;5055641;28;20051;-78
2022/08/03 06:40:17;;;;;;;12.77;3.22;;;24.70;99.90;;;;;;5053783;28;20454;-79
2022/08/03 06:42:43;;;;;;;7.63;2.60;;;24.90;99.90;;;;;;5053546;28;20040;-78
2022/08/03 06:45:09;;;;;;;11.18;2.80;;;24.80;99.90;;;;;;5053699;28;20499;-79
2022/08/03 06:47:36;;;;;;;11.10;3.17;;;24.70;99.90;;;;;;5054078;28;20040;-79
2022/08/03 06:50:06;;;;;;;13.35;3.08;;;24.50;99.90;;;;;;5056361;28;20044;-78
2022/08/03 06:52:32;;;;;;;10.30;2.35;;;24.30;99.90;;;;;;5057019;28;20040;-78
2022/08/03 06:54:58;;;;;;;9.15;2.33;;;24.30;99.90;;;;;;5058012;28;20041;-79
2022/08/03 06:57:24;;;;;;;9.55;2.88;;;24.50;99.90;;;;;;5057763;28;20048;-79
2022/08/03 06:59:49;;;;;;;9.32;3.17;;;24.60;99.90;;;;;;5077390;28;20040;-78
2022/08/03 07:02:17;;;;;;;10.90;3.10;;;24.70;99.90;;;;;;5058767;28;20032;-79
2022/08/03 07:04:43;;;;;;;10.43;2.83;;;24.90;99.90;;;;;;5059237;28;20133;-79
2022/08/03 07:07:08;;;;;;;10.05;2.67;;;25.10;99.90;;;;;;5058897;28;20090;-78
2022/08/03 07:09:34;;;;;;;7.43;2.63;;;25.10;99.90;;;;;;5040807;28;20431;-78
2022/08/03 07:12:01;;;;;;;9.90;2.55;;;24.90;99.90;;;;;;5056486;28;20098;-78
2022/08/03 07:14:26;;;;;;;15.82;3.30;;;24.70;99.90;;;;;;5057650;28;20055;-78
2022/08/03 07:16:52;;;;;;;11.40;3.20;;;24.70;99.90;;;;;;5056171;28;20037;-78
2022/08/03 07:19:18;;;;;;;8.98;2.45;;;24.70;99.90;;;;;;5047329;28;20037;-78
2022/08/03 07:21:44;;;;;;;11.75;2.38;;;24.70;99.90;;;;;;5038428;28;20044;-79
2022/08/03 07:24:10;;;;;;;10.63;2.63;;;24.90;99.90;;;;;;5038818;28;20045;-78
2022/08/03 07:26:35;;;;;;;7.45;2.78;;;25.00;99.90;;;;;;5039174;28;20565;-78
2022/08/03 07:29:01;;;;;;;10.20;2.70;;;25.30;99.90;;;;;;5063563;28;20048;-78
2022/08/03 07:31:27;;;;;;;14.57;3.10;;;25.50;99.90;;;;;;5049703;28;20051;-79
2022/08/03 07:33:52;;;;;;;8.75;2.58;;;25.60;99.90;;;;;;5057334;28;20044;-79
2022/08/03 07:36:18;;;;;;;12.75;2.95;;;25.80;99.90;;;;;;5048644;28;20056;-78
2022/08/03 07:38:44;;;;;;;10.30;3.28;;;25.90;99.90;;;;;;5057721;28;20483;-78
2022/08/03 07:41:09;;;;;;;12.20;3.53;;;25.90;99.90;;;;;;5042353;28;20088;-79
2022/08/03 07:43:35;;;;;;;12.98;3.50;;;26.10;99.90;;;;;;5036983;28;20039;-78
2022/08/03 07:46:00;;;;;;;15.18;2.38;;;26.20;99.90;;;;;;5037268;28;20569;-78
2022/08/03 07:48:26;;;;;;;10.27;2.90;;;26.40;99.90;;;;;;5038470;28;20128;-77
2022/08/03 07:50:51;;;;;;;18.10;2.70;;;26.50;99.90;;;;;;5052985;28;20094;-83
2022/08/03 07:53:17;;;;;;;12.73;3.53;;;26.60;99.90;;;;;;5062405;28;20048;-81
2022/08/03 07:55:43;;;;;;;14.75;2.75;;;26.90;99.90;;;;;;5068448;28;20037;-82
2022/08/03 07:58:14;;;;;;;15.65;2.67;;;27.00;99.90;;;;;;5069333;28;20031;-82
2022/08/03 08:00:40;;;;;;;15.05;3.10;;;27.30;99.90;;;;;;5038592;28;20044;-83
2022/08/03 08:03:06;;;;;;;15.43;3.13;;;27.50;99.90;;;;;;5042546;28;20036;-82
2022/08/03 08:05:31;;;;;;;13.23;2.92;;;27.80;99.90;;;;;;5051670;28;20044;-83
2022/08/03 08:07:57;;;;;;;11.88;2.97;;;28.10;99.90;;;;;;5044879;28;20036;-84
2022/08/03 08:10:23;;;;;;;13.32;2.38;;;28.40;99.90;;;;;;5044173;28;20107;-83
2022/08/03 08:12:49;;;;;;;15.27;2.50;;;28.50;99.90;;;;;;5034458;28;20124;-84
2022/08/03 08:15:15;;;;;;;14.00;2.38;;;28.80;99.90;;;;;;5034550;28;20431;-83
2022/08/03 08:17:52;;;;;;;14.60;2.70;;;28.80;99.90;;;;;;5036139;28;20044;-83
2022/08/03 08:20:21;;;;;;;12.27;2.58;;;28.80;99.90;;;;;;5051158;28;20041;-84
2022/08/03 08:22:46;;;;;;;14.05;2.63;;;28.80;99.90;;;;;;5047687;28;20041;-84
2022/08/03 08:25:12;;;;;;;15.70;2.30;;;28.80;99.90;;;;;;5054048;28;20037;-83
2022/08/03 08:27:46;;;;;;;12.07;2.75;;;28.90;99.90;;;;;;5037860;28;20124;-84
2022/08/03 08:30:13;;;;;;;10.95;2.30;;;29.00;99.90;;;;;;5036557;28;20127;-84
2022/08/03 08:32:38;;;;;;;20.15;4.15;;;29.00;99.90;;;;;;5037182;28;20119;-84
2022/08/03 08:35:05;;;;;;;15.65;2.67;;;29.00;99.90;;;;;;5054021;28;20103;-84
2022/08/03 08:37:32;;;;;;;15.68;3.50;;;29.00;99.90;;;;;;5053845;28;20500;-84
2022/08/03 08:39:58;;;;;;;13.02;3.15;;;29.00;99.90;;;;;;5046047;28;20395;-84
2022/08/03 08:42:24;;;;;;;9.57;2.63;;;29.10;99.90;;;;;;5036284;28;20114;-84
2022/08/03 08:44:50;;;;;;;7.55;2.70;;;29.20;99.90;;;;;;5036606;28;20503;-84
2022/08/03 08:47:18;;;;;;;12.50;2.50;;;29.20;99.90;;;;;;5062015;28;20032;-84
2022/08/03 08:49:45;;;;;;;14.02;2.63;;;29.20;99.90;;;;;;5053454;28;20040;-84
2022/08/03 08:52:13;;;;;;;10.15;2.72;;;29.30;99.90;;;;;;5050280;28;20135;-84
2022/08/03 08:54:43;;;;;;;10.57;2.63;;;29.30;99.90;;;;;;5044492;28;20048;-84
2022/08/03 08:57:09;;;;;;;8.45;2.72;;;29.30;99.90;;;;;;5052474;28;20040;-84
2022/08/03 08:59:36;;;;;;;11.13;2.78;;;29.40;99.90;;;;;;5048847;28;20430;-84
2022/08/03 09:02:01;;;;;;;13.82;2.65;;;29.50;99.90;;;;;;5053033;28;20036;-84
2022/08/03 09:04:28;;;;;;;14.88;2.97;;;29.60;99.90;;;;;;5044551;28;20044;-86
2022/08/03 09:06:54;;;;;;;10.80;2.58;;;29.60;99.90;;;;;;5049567;28;20036;-84
2022/08/03 09:09:20;;;;;;;8.43;2.33;;;29.70;99.90;;;;;;5045532;28;20503;-84
2022/08/03 09:11:47;;;;;;;12.20;2.53;;;29.70;99.90;;;;;;5045967;28;20044;-85
2022/08/03 09:14:13;;;;;;;7.30;3.10;;;29.80;99.90;;;;;;5050442;28;20047;-86
2022/08/03 09:17:01;;;;;;;10.00;2.28;;;29.70;99.90;;;;;;5032401;28;20029;-87
2022/08/03 09:19:28;;;;;;;10.23;2.10;;;29.90;99.90;;;;;;5033633;28;20037;-85
2022/08/03 09:22:06;;;;;;;9.65;3.17;;;30.00;99.90;;;;;;5062688;28;20167;-85
2022/08/03 09:24:32;;;;;;;12.05;2.80;;;30.00;99.90;;;;;;5047551;28;20032;-86
2022/08/03 09:26:58;;;;;;;12.18;2.42;;;30.10;99.90;;;;;;5038125;28;20553;-86
2022/08/03 09:29:24;;;;;;;11.32;1.98;;;30.20;99.90;;;;;;5045290;28;20045;-85
2022/08/03 09:31:59;;;;;;;15.57;2.67;;;30.30;99.90;;;;;;5044617;28;20067;-84
2022/08/03 09:34:27;;;;;;;14.02;3.20;;;30.60;99.90;;;;;;5053139;28;20056;-85
2022/08/03 09:36:53;;;;;;;12.88;2.78;;;30.60;99.70;;;;;;5051826;28;20427;-86
2022/08/03 09:39:24;;;;;;;15.10;2.53;;;30.60;99.20;;;;;;5044800;28;20036;-85
2022/08/03 09:42:21;;;;;;;;;;;30.60;98.10;;;;;;5053328;28;20048;-85
2022/08/03 09:44:49;;;;;;;13.05;2.45;;;30.40;98.40;;;;;;5051445;28;19923;-86
2022/08/03 09:47:26;;;;;;;9.35;2.13;;;30.50;99.80;;;;;;5036197;28;20044;-84
2022/08/03 09:50:04;;;;;;;10.65;2.17;;;30.60;98.90;;;;;;5052511;28;20048;-84
2022/08/03 09:52:32;;;;;;;11.25;2.72;;;30.90;97.50;;;;;;5048670;28;20049;-83
2022/08/03 09:55:00;;;;;;;12.30;2.20;;;31.00;97.60;;;;;;5047712;28;20149;-84
2022/08/03 09:57:27;;;;;;;11.73;2.00;;;31.00;95.50;;;;;;5052636;28;20045;-84
2022/08/03 10:00:03;;;;;;;10.40;2.58;;;30.80;96.70;;;;;;5052590;28;20111;-82
2022/08/03 10:02:29;;;;;;;11.50;2.53;;;30.80;97.10;;;;;;5032551;28;20047;-82
2022/08/03 10:04:55;;;;;;;12.30;2.72;;;30.90;96.50;;;;;;5050191;28;20037;-83
2022/08/03 10:07:23;;;;;;;14.80;2.80;;;31.00;96.20;;;;;;5049004;28;20131;-82
2022/08/03 10:10:00;;;;;;;14.20;3.05;;;31.10;97.10;;;;;;5051312;28;20503;-83
2022/08/03 10:12:26;;;;;;;10.07;2.63;;;31.30;97.10;;;;;;5034089;28;20070;-82
2022/08/03 10:14:53;;;;;;;11.23;2.45;;;31.40;96.40;;;;;;5045693;28;20064;-85
2022/08/03 10:17:20;;;;;;;13.82;3.17;;;31.50;96.60;;;;;;5049938;28;20119;-86
2022/08/03 10:19:46;;;;;;;14.20;3.15;;;31.50;96.00;;;;;;5045663;28;20124;-85
2022/08/03 10:22:20;;;;;;;13.50;2.60;;;31.50;95.90;;;;;;5027780;28;20399;-86
2022/08/03 10:24:55;;;;;;;13.60;2.63;;;31.60;93.80;;;;;;5041651;28;20372;-85
2022/08/03 10:27:23;;;;;;;15.98;2.88;;;31.50;93.50;;;;;;5047364;28;20041;-85
2022/08/03 10:29:54;;;;;;;12.20;2.88;;;31.40;95.00;;;;;;5052682;28;20123;-83
2022/08/03 10:32:34;;;;;;;9.65;2.20;;;31.20;94.70;;;;;;5054010;28;20052;-83
2022/08/03 10:35:12;;;;;;;17.92;4.00;;;31.00;95.80;;;;;;5049145;28;20479;-84
2022/08/03 10:37:43;;;;;;;10.90;2.53;;;30.90;95.10;;;;;;5057117;28;20044;-81
2022/08/03 10:40:13;;;;;;;12.23;2.88;;;30.90;93.80;;;;;;5039701;28;20491;-82
2022/08/03 10:42:41;;;;;;;10.30;2.58;;;31.10;93.70;;;;;;5056383;28;20036;-84
2022/08/03 10:45:20;;;;;;;12.45;3.05;;;31.20;94.30;;;;;;5039426;28;20042;-84
2022/08/03 10:47:47;;;;;;;16.75;2.80;;;31.20;94.30;;;;;;5056402;28;20048;-83
2022/08/03 10:50:14;;;;;;;13.60;2.42;;;31.30;93.60;;;;;;5039290;28;20046;-86
2022/08/03 10:53:06;;;;;;;9.93;3.13;;;31.30;91.80;;;;;;5039439;28;20043;-85
2022/08/03 10:58:39;;;;;;;13.63;3.10;;;31.20;91.60;;;;;;5056011;28;20129;-84
2022/08/03 11:01:10;;;;;;;15.45;3.03;;;31.40;91.30;;;;;;5055713;28;20055;-83
2022/08/03 11:03:54;;;;;;;13.65;2.85;;;31.50;90.10;;;;;;5055958;28;20078;-84
2022/08/03 11:06:24;;;;;;;16.45;2.83;;;31.60;92.50;;;;;;5055832;28;20056;-83
2022/08/03 11:09:08;;;;;;;12.15;2.90;;;31.60;90.10;;;;;;5056007;28;20040;-84
2022/08/03 11:11:35;;;;;;;16.10;2.88;;;31.70;84.80;;;;;;5055443;28;20050;-85
2022/08/03 11:14:07;;;;;;;16.20;2.47;;;31.70;85.30;;;;;;5055606;28;20487;-83
2022/08/03 11:16:37;;;;;;;11.88;2.72;;;31.70;82.80;;;;;;5055742;28;20040;-83
2022/08/03 11:19:11;;;;;;;14.80;2.97;;;31.70;83.70;;;;;;5073958;28;20044;-84
2022/08/03 11:21:48;;;;;;;12.73;3.00;;;31.80;81.70;;;;;;5056099;28;20036;-84
2022/08/03 11:24:36;;;;;;;14.38;3.15;;;31.90;80.90;;;;;;5056121;28;20079;-80
2022/08/03 11:27:17;;;;;;;14.23;2.70;;;32.00;75.90;;;;;;5039575;28;20041;-83
2022/08/03 11:30:30;;;;;;;9.48;1.88;;;31.90;81.40;;;;;;5056499;28;20059;-82
2022/08/03 11:32:57;;;;;;;15.75;2.70;;;31.80;82.90;;;;;;4972915;28;20129;-82
2022/08/03 11:35:42;;;;;;;13.25;2.20;;;31.90;79.60;;;;;;5021204;28;20460;-81
2022/08/03 11:38:10;;;;;;;16.90;2.75;;;32.10;73.50;;;;;;5055050;28;20040;-82
2022/08/03 11:40:44;;;;;;;11.98;2.58;;;32.00;74.60;;;;;;5024043;28;20041;-82
2022/08/03 11:43:29;;;;;;;13.23;3.33;;;32.20;73.30;;;;;;5018953;28;20037;-83
2022/08/03 11:46:15;;;;;;;13.85;3.35;;;32.40;70.70;;;;;;5024482;28;20044;-81
2022/08/03 11:48:43;;;;;;;13.77;3.83;;;32.40;69.80;;;;;;5047096;28;20088;-81
2022/08/03 11:51:20;;;;;;;15.30;3.85;;;32.40;70.10;;;;;;5034745;28;20045;-81
2022/08/03 11:53:46;;;;;;;16.95;3.25;;;32.40;70.00;;;;;;5055580;28;20103;-82
2022/08/03 11:56:12;;;;;;;12.23;3.92;;;32.40;70.20;;;;;;5054854;28;20048;-82
2022/08/03 11:58:46;;;;;;;14.07;2.58;;;32.30;72.20;;;;;;5055095;28;20048;-81
2022/08/03 12:01:12;;;;;;;20.20;3.45;;;32.40;69.90;;;;;;5054550;28;20040;-82
2022/08/03 12:03:37;;;;;;;15.20;2.97;;;32.40;71.70;;;;;;5054735;28;20562;-82
2022/08/03 12:06:09;;;;;;;10.68;2.55;;;32.40;71.30;;;;;;5038073;28;20081;-81
2022/08/03 12:08:35;;;;;;;12.32;2.17;;;32.40;69.00;;;;;;5054867;28;20044;-77
2022/08/03 12:11:04;;;;;;;10.82;2.33;;;32.30;70.60;;;;;;5054311;28;20044;-77
2022/08/03 12:13:46;;;;;;;11.48;3.05;;;32.20;72.20;;;;;;5054726;28;20502;-77
2022/08/03 12:16:19;;;;;;;15.23;2.17;;;32.30;72.40;;;;;;5072207;28;20054;-77
2022/08/03 12:18:53;;;;;;;13.00;2.35;;;32.30;72.50;;;;;;5072290;28;20514;-77
2022/08/03 12:21:23;;;;;;;13.40;2.30;;;32.30;73.00;;;;;;5054121;28;20500;-77
2022/08/03 12:23:49;;;;;;;12.10;2.75;;;32.40;73.90;;;;;;5054348;28;20526;-77
2022/08/03 12:26:14;;;;;;;15.23;3.53;;;32.50;70.10;;;;;;5054554;28;20048;-77
2022/08/03 12:28:47;;;;;;;12.07;2.60;;;32.40;70.70;;;;;;5054507;28;20040;-78
2022/08/03 12:31:13;;;;;;;11.48;2.40;;;32.40;67.60;;;;;;5054076;28;20047;-77
2022/08/03 12:33:57;;;;;;;12.40;2.17;;;32.40;67.00;;;;;;5071987;28;20041;-78
2022/08/03 12:36:23;;;;;;;13.27;2.47;;;32.40;65.60;;;;;;5054136;28;20048;-76
2022/08/03 12:39:03;;;;;;;14.52;2.30;;;32.40;65.70;;;;;;5053969;28;20071;-79
2022/08/03 12:41:32;;;;;;;13.10;3.00;;;32.50;63.10;;;;;;5053688;28;20041;-77
2022/08/03 12:43:58;;;;;;;11.18;2.33;;;32.50;63.10;;;;;;5053941;28;20562;-77
2022/08/03 12:46:30;;;;;;;11.23;2.65;;;32.40;64.00;;;;;;5053039;28;20123;-77
2022/08/03 12:49:10;;;;;;;13.75;2.22;;;32.30;61.30;;;;;;5071741;28;20059;-77
2022/08/03 12:51:49;;;;;;;14.57;2.43;;;32.40;65.70;;;;;;5053702;28;20114;-77
2022/08/03 12:54:16;;;;;;;12.45;2.08;;;32.40;61.70;;;;;;5053862;28;20290;-77
2022/08/03 12:56:59;;;;;;;15.57;2.60;;;32.30;62.90;;;;;;5052282;28;20047;-77
2022/08/03 12:59:48;;;;;;;9.48;2.28;;;32.30;63.20;;;;;;5050146;28;20048;-72
2022/08/03 13:02:19;;;;;;;17.73;2.50;;;32.40;60.90;;;;;;5070415;28;20475;-72
2022/08/03 13:04:45;;;;;;;;;;;32.40;60.60;;;;;;5051790;28;20068;-75